sensor_id;sensor_type;location;lat;lon;timestamp;pressure;altitude;pressure_sealevel;temperature;humidity
59825;BME280;45703;50.898;6.054;2023-06-26T00:00:08;99862.78;;;23.05;62.95
59825;BME280;45703;50.898;6.054;2023-06-26T00:02:34;99868.84;;;23.02;63.57
59825;BME280;45703;50.898;6.054;2023-06-26T00:04:59;99873.31;;;22.98;64.06
59825;BME280;45703;50.898;6.054;2023-06-26T00:07:31;99866.69;;;22.90;64.26
59825;BME280;45703;50.898;6.054;2023-06-26T00:09:59;99867.16;;;22.84;63.81
59825;BME280;45703;50.898;6.054;2023-06-26T00:12:25;99865.53;;;22.83;64.18
59825;BME280;45703;50.898;6.054;2023-06-26T00:14:50;99877.03;;;22.80;63.83
59825;BME280;45703;50.898;6.054;2023-06-26T00:17:15;99871.91;;;22.78;63.04
59825;BME280;45703;50.898;6.054;2023-06-26T00:19:41;99866.78;;;22.77;63.61
59825;BME280;45703;50.898;6.054;2023-06-26T00:22:06;99870.63;;;22.76;63.49
59825;BME280;45703;50.898;6.054;2023-06-26T00:24:32;99872.50;;;22.75;62.83
59825;BME280;45703;50.898;6.054;2023-06-26T00:26:57;99873.97;;;22.73;62.32
59825;BME280;45703;50.898;6.054;2023-06-26T00:29:24;99866.28;;;22.75;62.25
59825;BME280;45703;50.898;6.054;2023-06-26T00:31:49;99873.97;;;22.73;62.69
59825;BME280;45703;50.898;6.054;2023-06-26T00:34:15;99863.38;;;22.71;63.16
59825;BME280;45703;50.898;6.054;2023-06-26T00:36:41;99874.25;;;22.71;62.29
59825;BME280;45703;50.898;6.054;2023-06-26T00:39:09;99862.88;;;22.69;62.60
59825;BME280;45703;50.898;6.054;2023-06-26T00:41:36;99865.28;;;22.71;62.22
59825;BME280;45703;50.898;6.054;2023-06-26T00:44:02;99868.59;;;22.68;62.38
59825;BME280;45703;50.898;6.054;2023-06-26T00:46:27;99871.81;;;22.70;62.26
59825;BME280;45703;50.898;6.054;2023-06-26T00:48:54;99865.72;;;22.64;62.35
59825;BME280;45703;50.898;6.054;2023-06-26T00:51:20;99876.28;;;22.66;62.71
59825;BME280;45703;50.898;6.054;2023-06-26T00:53:45;99879.13;;;22.61;61.89
59825;BME280;45703;50.898;6.054;2023-06-26T00:56:11;99881.72;;;22.66;60.02
59825;BME280;45703;50.898;6.054;2023-06-26T00:58:36;99877.28;;;22.70;59.73
59825;BME280;45703;50.898;6.054;2023-06-26T01:01:02;99869.44;;;22.68;60.24
59825;BME280;45703;50.898;6.054;2023-06-26T01:03:28;99883.28;;;22.80;58.83
59825;BME280;45703;50.898;6.054;2023-06-26T01:05:56;99874.06;;;22.90;57.58
59825;BME280;45703;50.898;6.054;2023-06-26T01:08:25;99874.00;;;23.03;56.84
59825;BME280;45703;50.898;6.054;2023-06-26T01:10:51;99876.84;;;23.20;56.06
59825;BME280;45703;50.898;6.054;2023-06-26T01:13:17;99873.56;;;23.32;55.95
59825;BME280;45703;50.898;6.054;2023-06-26T01:15:42;99871.19;;;23.39;55.96
59825;BME280;45703;50.898;6.054;2023-06-26T01:18:08;99859.03;;;23.45;55.13
59825;BME280;45703;50.898;6.054;2023-06-26T01:20:38;99858.25;;;23.52;55.17
59825;BME280;45703;50.898;6.054;2023-06-26T01:24:16;99867.59;;;23.68;54.73
59825;BME280;45703;50.898;6.054;2023-06-26T01:26:22;99861.03;;;23.69;54.73
59825;BME280;45703;50.898;6.054;2023-06-26T01:28:52;99874.09;;;23.81;54.75
59825;BME280;45703;50.898;6.054;2023-06-26T01:31:19;99872.53;;;23.88;54.71
59825;BME280;45703;50.898;6.054;2023-06-26T01:33:45;99867.06;;;23.88;54.92
59825;BME280;45703;50.898;6.054;2023-06-26T01:36:11;99864.66;;;23.87;55.29
59825;BME280;45703;50.898;6.054;2023-06-26T01:38:37;99872.47;;;23.80;55.91
59825;BME280;45703;50.898;6.054;2023-06-26T01:41:04;99867.53;;;23.82;55.95
59825;BME280;45703;50.898;6.054;2023-06-26T01:49:13;99875.28;;;23.66;56.57
59825;BME280;45703;50.898;6.054;2023-06-26T01:51:45;99895.00;;;23.63;57.33
59825;BME280;45703;50.898;6.054;2023-06-26T01:54:18;99888.84;;;23.49;58.25
59825;BME280;45703;50.898;6.054;2023-06-26T01:56:45;99897.38;;;23.48;58.40
59825;BME280;45703;50.898;6.054;2023-06-26T01:59:14;99895.69;;;23.39;59.37
59825;BME280;45703;50.898;6.054;2023-06-26T02:01:39;99905.97;;;23.42;59.07
59825;BME280;45703;50.898;6.054;2023-06-26T02:04:05;99911.06;;;23.35;59.50
59825;BME280;45703;50.898;6.054;2023-06-26T02:06:30;99906.69;;;23.25;59.79
59825;BME280;45703;50.898;6.054;2023-06-26T02:08:56;99903.25;;;23.20;60.00
59825;BME280;45703;50.898;6.054;2023-06-26T02:11:22;99907.72;;;23.16;60.32
59825;BME280;45703;50.898;6.054;2023-06-26T02:13:47;99912.19;;;23.12;60.17
59825;BME280;45703;50.898;6.054;2023-06-26T02:16:13;99916.47;;;23.04;60.60
59825;BME280;45703;50.898;6.054;2023-06-26T02:18:38;99914.66;;;23.00;60.53
59825;BME280;45703;50.898;6.054;2023-06-26T02:21:04;99920.09;;;23.00;61.23
59825;BME280;45703;50.898;6.054;2023-06-26T02:23:29;99918.91;;;22.92;61.27
59825;BME280;45703;50.898;6.054;2023-06-26T02:25:55;99924.59;;;22.82;61.48
59825;BME280;45703;50.898;6.054;2023-06-26T02:28:20;99930.50;;;22.76;62.33
59825;BME280;45703;50.898;6.054;2023-06-26T02:30:46;99933.34;;;22.71;61.71
59825;BME280;45703;50.898;6.054;2023-06-26T02:33:11;99936.16;;;22.66;62.44
59825;BME280;45703;50.898;6.054;2023-06-26T02:35:36;99942.81;;;22.60;62.89
59825;BME280;45703;50.898;6.054;2023-06-26T02:38:02;99945.66;;;22.55;63.54
59825;BME280;45703;50.898;6.054;2023-06-26T02:40:27;99935.00;;;22.45;63.87
59825;BME280;45703;50.898;6.054;2023-06-26T02:42:52;99940.75;;;22.43;64.01
59825;BME280;45703;50.898;6.054;2023-06-26T02:45:18;99945.09;;;22.31;64.61
59825;BME280;45703;50.898;6.054;2023-06-26T02:47:43;99951.13;;;22.28;65.44
59825;BME280;45703;50.898;6.054;2023-06-26T02:50:09;99951.25;;;22.23;65.41
59825;BME280;45703;50.898;6.054;2023-06-26T02:52:34;99960.00;;;22.20;66.03
59825;BME280;45703;50.898;6.054;2023-06-26T02:55:00;99948.31;;;22.06;66.52
59825;BME280;45703;50.898;6.054;2023-06-26T02:57:25;99957.09;;;22.03;65.90
59825;BME280;45703;50.898;6.054;2023-06-26T02:59:50;99951.53;;;22.08;66.65
59825;BME280;45703;50.898;6.054;2023-06-26T03:02:16;99959.13;;;21.98;66.88
59825;BME280;45703;50.898;6.054;2023-06-26T03:04:41;99961.41;;;21.91;66.78
59825;BME280;45703;50.898;6.054;2023-06-26T03:07:08;99966.56;;;21.92;66.95
59825;BME280;45703;50.898;6.054;2023-06-26T03:09:33;99967.44;;;21.88;67.19
59825;BME280;45703;50.898;6.054;2023-06-26T03:11:59;99965.66;;;21.83;66.06
59825;BME280;45703;50.898;6.054;2023-06-26T03:14:24;99961.91;;;21.79;66.45
59825;BME280;45703;50.898;6.054;2023-06-26T03:16:50;99966.22;;;21.67;66.80
59825;BME280;45703;50.898;6.054;2023-06-26T03:19:18;99968.94;;;21.67;67.11
59825;BME280;45703;50.898;6.054;2023-06-26T03:21:43;99961.47;;;21.59;66.63
59825;BME280;45703;50.898;6.054;2023-06-26T03:24:09;99967.78;;;21.54;66.89
59825;BME280;45703;50.898;6.054;2023-06-26T03:26:34;99978.63;;;21.54;66.58
59825;BME280;45703;50.898;6.054;2023-06-26T03:28:59;99981.44;;;21.49;66.50
59825;BME280;45703;50.898;6.054;2023-06-26T03:31:25;99975.09;;;21.40;65.54
59825;BME280;45703;50.898;6.054;2023-06-26T03:33:50;99982.81;;;21.33;65.91
59825;BME280;45703;50.898;6.054;2023-06-26T03:36:15;99981.31;;;21.27;66.00
59825;BME280;45703;50.898;6.054;2023-06-26T03:38:41;99986.22;;;21.25;65.80
59825;BME280;45703;50.898;6.054;2023-06-26T03:41:06;99983.59;;;21.20;67.08
59825;BME280;45703;50.898;6.054;2023-06-26T03:43:32;99994.00;;;21.13;66.39
59825;BME280;45703;50.898;6.054;2023-06-26T03:45:57;99991.09;;;21.10;67.28
59825;BME280;45703;50.898;6.054;2023-06-26T03:48:22;99994.00;;;21.13;67.23
59825;BME280;45703;50.898;6.054;2023-06-26T03:50:48;100000.59;;;21.07;67.26
59825;BME280;45703;50.898;6.054;2023-06-26T03:53:14;100000.09;;;21.05;67.85
59825;BME280;45703;50.898;6.054;2023-06-26T03:55:39;100002.38;;;20.98;68.03
59825;BME280;45703;50.898;6.054;2023-06-26T03:58:04;100002.97;;;20.95;68.02
59825;BME280;45703;50.898;6.054;2023-06-26T04:00:30;100018.66;;;20.98;68.14
59825;BME280;45703;50.898;6.054;2023-06-26T04:02:55;100013.91;;;20.90;68.62
59825;BME280;45703;50.898;6.054;2023-06-26T04:05:21;100007.97;;;20.88;67.71
59825;BME280;45703;50.898;6.054;2023-06-26T04:07:50;100012.38;;;20.84;68.59
59825;BME280;45703;50.898;6.054;2023-06-26T04:10:16;100009.66;;;20.84;68.39
59825;BME280;45703;50.898;6.054;2023-06-26T04:12:42;100015.59;;;20.86;68.66
59825;BME280;45703;50.898;6.054;2023-06-26T04:15:08;100022.44;;;20.79;68.43
59825;BME280;45703;50.898;6.054;2023-06-26T04:17:33;100018.94;;;20.78;68.37
59825;BME280;45703;50.898;6.054;2023-06-26T04:19:58;100022.75;;;20.77;68.72
59825;BME280;45703;50.898;6.054;2023-06-26T04:22:24;100025.22;;;20.74;67.97
59825;BME280;45703;50.898;6.054;2023-06-26T04:24:51;100021.72;;;20.73;68.08
59825;BME280;45703;50.898;6.054;2023-06-26T04:27:18;100022.31;;;20.70;68.76
59825;BME280;45703;50.898;6.054;2023-06-26T04:29:43;100038.00;;;20.73;68.10
59825;BME280;45703;50.898;6.054;2023-06-26T04:32:09;100038.13;;;20.63;68.62
59825;BME280;45703;50.898;6.054;2023-06-26T04:34:34;100025.72;;;20.57;69.20
59825;BME280;45703;50.898;6.054;2023-06-26T04:37:01;100035.47;;;20.58;68.89
59825;BME280;45703;50.898;6.054;2023-06-26T04:39:29;100032.81;;;20.53;69.44
59825;BME280;45703;50.898;6.054;2023-06-26T04:41:55;100029.91;;;20.50;69.41
59825;BME280;45703;50.898;6.054;2023-06-26T04:44:20;100037.97;;;20.55;69.52
59825;BME280;45703;50.898;6.054;2023-06-26T04:46:46;100039.28;;;20.57;69.38
59825;BME280;45703;50.898;6.054;2023-06-26T04:49:11;100049.56;;;20.60;69.35
59825;BME280;45703;50.898;6.054;2023-06-26T04:51:37;100046.31;;;20.58;69.75
59825;BME280;45703;50.898;6.054;2023-06-26T04:54:09;100043.16;;;20.51;69.87
59825;BME280;45703;50.898;6.054;2023-06-26T04:56:35;100046.38;;;20.53;69.82
59825;BME280;45703;50.898;6.054;2023-06-26T04:59:00;100059.69;;;20.55;69.93
59825;BME280;45703;50.898;6.054;2023-06-26T05:01:26;100058.56;;;20.56;69.78
59825;BME280;45703;50.898;6.054;2023-06-26T05:03:57;100068.59;;;20.55;70.43
59825;BME280;45703;50.898;6.054;2023-06-26T05:06:23;100068.66;;;20.50;70.44
59825;BME280;45703;50.898;6.054;2023-06-26T05:08:48;100074.09;;;20.50;70.52
59825;BME280;45703;50.898;6.054;2023-06-26T05:11:14;100060.66;;;20.41;70.88
59825;BME280;45703;50.898;6.054;2023-06-26T05:13:39;100061.50;;;20.36;70.87
59825;BME280;45703;50.898;6.054;2023-06-26T05:16:05;100079.13;;;20.39;71.26
59825;BME280;45703;50.898;6.054;2023-06-26T05:18:31;100086.09;;;20.44;71.13
59825;BME280;45703;50.898;6.054;2023-06-26T05:20:56;100070.13;;;20.43;71.29
59825;BME280;45703;50.898;6.054;2023-06-26T05:23:24;100076.47;;;20.34;72.36
59825;BME280;45703;50.898;6.054;2023-06-26T05:25:50;100086.16;;;20.40;72.60
59825;BME280;45703;50.898;6.054;2023-06-26T05:28:16;100085.72;;;20.33;72.40
59825;BME280;45703;50.898;6.054;2023-06-26T05:30:42;100083.00;;;20.33;72.92
59825;BME280;45703;50.898;6.054;2023-06-26T05:33:10;100089.97;;;20.39;73.56
59825;BME280;45703;50.898;6.054;2023-06-26T05:35:36;100081.84;;;20.39;73.15
59825;BME280;45703;50.898;6.054;2023-06-26T05:38:01;100080.28;;;20.33;73.46
59825;BME280;45703;50.898;6.054;2023-06-26T05:40:27;100085.72;;;20.33;73.39
59825;BME280;45703;50.898;6.054;2023-06-26T05:42:53;100093.25;;;20.36;73.89
59825;BME280;45703;50.898;6.054;2023-06-26T05:45:18;100103.00;;;20.37;74.03
59825;BME280;45703;50.898;6.054;2023-06-26T05:47:44;100105.72;;;20.37;73.93
59825;BME280;45703;50.898;6.054;2023-06-26T05:50:10;100096.25;;;20.34;75.31
59825;BME280;45703;50.898;6.054;2023-06-26T05:52:36;100090.31;;;20.32;75.20
59825;BME280;45703;50.898;6.054;2023-06-26T05:55:02;100107.84;;;20.40;74.17
59825;BME280;45703;50.898;6.054;2023-06-26T05:57:29;100102.94;;;20.42;74.82
59825;BME280;45703;50.898;6.054;2023-06-26T05:59:55;100093.13;;;20.45;74.67
59825;BME280;45703;50.898;6.054;2023-06-26T06:02:21;100104.97;;;20.54;75.05
59825;BME280;45703;50.898;6.054;2023-06-26T06:04:46;100112.69;;;20.66;74.30
59825;BME280;45703;50.898;6.054;2023-06-26T06:07:12;100103.72;;;20.70;73.93
59825;BME280;45703;50.898;6.054;2023-06-26T06:09:37;100102.31;;;20.73;73.57
59825;BME280;45703;50.898;6.054;2023-06-26T06:12:04;100117.53;;;20.69;73.64
59825;BME280;45703;50.898;6.054;2023-06-26T06:14:31;100120.56;;;20.67;74.22
59825;BME280;45703;50.898;6.054;2023-06-26T06:16:56;100119.28;;;20.60;74.08
59825;BME280;45703;50.898;6.054;2023-06-26T06:19:22;100116.06;;;20.58;74.64
59825;BME280;45703;50.898;6.054;2023-06-26T06:21:48;100117.09;;;20.62;73.60
59825;BME280;45703;50.898;6.054;2023-06-26T06:24:13;100123.09;;;20.59;73.93
59825;BME280;45703;50.898;6.054;2023-06-26T06:26:39;100128.75;;;20.62;74.87
59825;BME280;45703;50.898;6.054;2023-06-26T06:29:04;100128.22;;;20.60;73.74
59825;BME280;45703;50.898;6.054;2023-06-26T06:31:29;100149.13;;;20.60;74.45
59825;BME280;45703;50.898;6.054;2023-06-26T06:33:55;100140.16;;;20.59;75.92
59825;BME280;45703;50.898;6.054;2023-06-26T06:36:20;100143.19;;;20.58;75.04
59825;BME280;45703;50.898;6.054;2023-06-26T06:38:46;100168.81;;;20.70;74.16
59825;BME280;45703;50.898;6.054;2023-06-26T06:41:11;100172.50;;;20.79;73.20
59825;BME280;45703;50.898;6.054;2023-06-26T06:43:38;100170.91;;;20.78;74.02
59825;BME280;45703;50.898;6.054;2023-06-26T06:46:03;100173.03;;;20.81;73.33
59825;BME280;45703;50.898;6.054;2023-06-26T06:48:29;100168.69;;;20.80;73.54
59825;BME280;45703;50.898;6.054;2023-06-26T06:50:54;100168.16;;;20.83;73.35
59825;BME280;45703;50.898;6.054;2023-06-26T06:53:19;100170.28;;;20.86;72.55
59825;BME280;45703;50.898;6.054;2023-06-26T06:55:51;100172.34;;;20.94;72.16
59825;BME280;45703;50.898;6.054;2023-06-26T06:58:16;100174.63;;;20.87;71.95
59825;BME280;45703;50.898;6.054;2023-06-26T07:00:44;100172.41;;;20.89;72.10
59825;BME280;45703;50.898;6.054;2023-06-26T07:03:09;100181.00;;;20.96;72.14
59825;BME280;45703;50.898;6.054;2023-06-26T07:05:35;100173.69;;;20.97;71.99
59825;BME280;45703;50.898;6.054;2023-06-26T07:08:01;100185.06;;;20.99;71.63
59825;BME280;45703;50.898;6.054;2023-06-26T07:10:26;100184.63;;;21.10;71.55
59825;BME280;45703;50.898;6.054;2023-06-26T07:12:52;100182.75;;;21.11;72.09
59825;BME280;45703;50.898;6.054;2023-06-26T07:15:17;100189.38;;;21.23;71.80
59825;BME280;45703;50.898;6.054;2023-06-26T07:17:42;100189.00;;;21.30;71.62
59825;BME280;45703;50.898;6.054;2023-06-26T07:20:09;100183.78;;;21.33;70.37
59825;BME280;45703;50.898;6.054;2023-06-26T07:22:40;100188.34;;;21.38;70.73
59825;BME280;45703;50.898;6.054;2023-06-26T07:25:06;100199.34;;;21.46;70.31
59825;BME280;45703;50.898;6.054;2023-06-26T07:27:37;100211.09;;;21.60;69.35
59825;BME280;45703;50.898;6.054;2023-06-26T07:30:03;100216.53;;;21.60;69.55
59825;BME280;45703;50.898;6.054;2023-06-26T07:32:29;100207.31;;;21.61;68.78
59825;BME280;45703;50.898;6.054;2023-06-26T07:34:54;100194.88;;;21.55;69.37
59825;BME280;45703;50.898;6.054;2023-06-26T07:37:20;100199.28;;;21.51;69.34
59825;BME280;45703;50.898;6.054;2023-06-26T07:39:45;100212.06;;;21.51;69.00
59825;BME280;45703;50.898;6.054;2023-06-26T07:42:10;100217.28;;;21.47;69.75
59825;BME280;45703;50.898;6.054;2023-06-26T07:44:36;100217.13;;;21.57;68.76
59825;BME280;45703;50.898;6.054;2023-06-26T07:47:01;100230.19;;;21.55;69.93
59825;BME280;45703;50.898;6.054;2023-06-26T07:49:27;100232.84;;;21.60;67.60
59825;BME280;45703;50.898;6.054;2023-06-26T07:51:52;100250.22;;;21.64;67.74
59825;BME280;45703;50.898;6.054;2023-06-26T07:54:18;100249.63;;;21.67;67.93
59825;BME280;45703;50.898;6.054;2023-06-26T07:56:53;100249.00;;;21.75;67.57
59825;BME280;45703;50.898;6.054;2023-06-26T07:59:23;100244.84;;;21.78;67.94
59825;BME280;45703;50.898;6.054;2023-06-26T08:01:50;100238.03;;;21.80;67.99
59825;BME280;45703;50.898;6.054;2023-06-26T08:04:15;100242.72;;;21.93;67.95
59825;BME280;45703;50.898;6.054;2023-06-26T08:06:41;100235.22;;;22.03;66.57
59825;BME280;45703;50.898;6.054;2023-06-26T08:09:07;100240.19;;;22.15;66.44
59825;BME280;45703;50.898;6.054;2023-06-26T08:11:33;100235.25;;;22.17;65.33
59825;BME280;45703;50.898;6.054;2023-06-26T08:13:59;100247.47;;;22.19;65.12
59825;BME280;45703;50.898;6.054;2023-06-26T08:16:24;100247.09;;;22.26;64.43
59825;BME280;45703;50.898;6.054;2023-06-26T08:18:49;100247.31;;;22.29;64.69
59825;BME280;45703;50.898;6.054;2023-06-26T08:21:15;100257.97;;;22.26;64.94
59825;BME280;45703;50.898;6.054;2023-06-26T08:23:40;100254.66;;;22.29;63.85
59825;BME280;45703;50.898;6.054;2023-06-26T08:26:06;100263.56;;;22.16;64.28
59825;BME280;45703;50.898;6.054;2023-06-26T08:28:31;100268.41;;;22.19;62.99
59825;BME280;45703;50.898;6.054;2023-06-26T08:30:56;100274.44;;;22.16;63.57
59825;BME280;45703;50.898;6.054;2023-06-26T08:33:22;100259.75;;;22.17;62.92
59825;BME280;45703;50.898;6.054;2023-06-26T08:35:47;100275.91;;;22.27;61.61
59825;BME280;45703;50.898;6.054;2023-06-26T08:38:12;100268.34;;;22.24;61.92
59825;BME280;45703;50.898;6.054;2023-06-26T08:40:38;100266.25;;;22.34;61.73
59825;BME280;45703;50.898;6.054;2023-06-26T08:43:04;100262.44;;;22.35;61.43
59825;BME280;45703;50.898;6.054;2023-06-26T08:45:29;100275.19;;;22.40;62.40
59825;BME280;45703;50.898;6.054;2023-06-26T08:47:59;100266.34;;;22.48;61.05
59825;BME280;45703;50.898;6.054;2023-06-26T08:50:28;100275.75;;;22.55;60.38
59825;BME280;45703;50.898;6.054;2023-06-26T08:56:08;100285.31;;;22.53;59.59
59825;BME280;45703;50.898;6.054;2023-06-26T08:58:35;100283.69;;;22.52;59.44
59825;BME280;45703;50.898;6.054;2023-06-26T09:01:04;100272.97;;;22.42;59.53
59825;BME280;45703;50.898;6.054;2023-06-26T09:03:30;100266.06;;;22.31;60.27
59825;BME280;45703;50.898;6.054;2023-06-26T09:05:56;100265.03;;;22.27;59.75
59825;BME280;45703;50.898;6.054;2023-06-26T09:08:22;100269.28;;;22.33;59.29
59825;BME280;45703;50.898;6.054;2023-06-26T09:10:47;100277.13;;;22.34;59.40
59825;BME280;45703;50.898;6.054;2023-06-26T09:13:13;100277.91;;;22.40;58.98
59825;BME280;45703;50.898;6.054;2023-06-26T09:15:42;100270.53;;;22.40;59.42
59825;BME280;45703;50.898;6.054;2023-06-26T09:18:07;100271.78;;;22.48;58.55
59825;BME280;45703;50.898;6.054;2023-06-26T09:20:33;100269.56;;;22.50;59.27
59825;BME280;45703;50.898;6.054;2023-06-26T09:22:59;100274.84;;;22.60;59.63
59825;BME280;45703;50.898;6.054;2023-06-26T09:25:25;100281.88;;;22.61;59.60
59825;BME280;45703;50.898;6.054;2023-06-26T09:27:51;100284.84;;;22.64;58.88
59825;BME280;45703;50.898;6.054;2023-06-26T09:30:17;100294.25;;;22.72;58.16
59825;BME280;45703;50.898;6.054;2023-06-26T09:32:43;100283.44;;;22.80;58.33
59825;BME280;45703;50.898;6.054;2023-06-26T09:35:09;100287.91;;;22.90;57.27
59825;BME280;45703;50.898;6.054;2023-06-26T09:37:35;100295.47;;;22.93;57.48
59825;BME280;45703;50.898;6.054;2023-06-26T09:40:00;100294.28;;;22.99;58.05
59825;BME280;45703;50.898;6.054;2023-06-26T09:42:26;100297.50;;;23.01;57.84
59825;BME280;45703;50.898;6.054;2023-06-26T09:44:51;100285.00;;;23.00;57.16
59825;BME280;45703;50.898;6.054;2023-06-26T09:47:18;100290.84;;;23.07;57.29
59825;BME280;45703;50.898;6.054;2023-06-26T09:49:44;100306.00;;;23.13;56.14
59825;BME280;45703;50.898;6.054;2023-06-26T09:52:11;100299.56;;;23.22;55.74
59825;BME280;45703;50.898;6.054;2023-06-26T09:54:38;100305.25;;;23.26;55.72
59825;BME280;45703;50.898;6.054;2023-06-26T09:57:11;100311.97;;;23.15;56.25
59825;BME280;45703;50.898;6.054;2023-06-26T09:59:37;100298.50;;;23.05;56.51
59825;BME280;45703;50.898;6.054;2023-06-26T10:02:03;100305.06;;;23.04;56.44
59825;BME280;45703;50.898;6.054;2023-06-26T10:04:29;100311.13;;;23.01;57.07
59825;BME280;45703;50.898;6.054;2023-06-26T10:06:56;100316.47;;;23.06;57.40
59825;BME280;45703;50.898;6.054;2023-06-26T10:09:22;100316.13;;;23.12;54.95
59825;BME280;45703;50.898;6.054;2023-06-26T10:14:14;100307.19;;;23.07;54.85
59825;BME280;45703;50.898;6.054;2023-06-26T10:16:42;100317.06;;;23.03;54.80
59825;BME280;45703;50.898;6.054;2023-06-26T10:19:10;100306.63;;;23.10;54.53
59825;BME280;45703;50.898;6.054;2023-06-26T10:21:38;100315.09;;;23.22;55.28
59825;BME280;45703;50.898;6.054;2023-06-26T10:24:05;100306.41;;;23.20;54.81
59825;BME280;45703;50.898;6.054;2023-06-26T10:26:33;100312.91;;;23.24;53.06
59825;BME280;45703;50.898;6.054;2023-06-26T10:29:01;100319.66;;;23.26;53.20
59825;BME280;45703;50.898;6.054;2023-06-26T10:31:28;100312.19;;;23.32;53.89
59825;BME280;45703;50.898;6.054;2023-06-26T10:33:54;100300.97;;;23.33;54.52
59825;BME280;45703;50.898;6.054;2023-06-26T10:36:28;100311.69;;;23.30;54.82
59825;BME280;45703;50.898;6.054;2023-06-26T10:39:20;100324.09;;;23.22;53.54
59825;BME280;45703;50.898;6.054;2023-06-26T10:41:45;100318.34;;;23.24;52.77
59825;BME280;45703;50.898;6.054;2023-06-26T10:44:12;100310.69;;;23.26;52.90
59825;BME280;45703;50.898;6.054;2023-06-26T10:46:52;100323.09;;;23.32;52.13
59825;BME280;45703;50.898;6.054;2023-06-26T10:49:23;100334.06;;;23.40;52.07
59825;BME280;45703;50.898;6.054;2023-06-26T10:51:50;100333.28;;;23.53;51.07
59825;BME280;45703;50.898;6.054;2023-06-26T10:54:16;100337.72;;;23.62;51.30
59825;BME280;45703;50.898;6.054;2023-06-26T10:56:44;100342.38;;;23.62;50.79
59825;BME280;45703;50.898;6.054;2023-06-26T10:59:17;100337.09;;;23.65;51.29
59825;BME280;45703;50.898;6.054;2023-06-26T11:01:44;100330.97;;;23.73;50.96
59825;BME280;45703;50.898;6.054;2023-06-26T11:04:12;100331.16;;;23.63;51.66
59825;BME280;45703;50.898;6.054;2023-06-26T11:06:39;100343.25;;;23.71;50.62
59825;BME280;45703;50.898;6.054;2023-06-26T11:14:18;100335.00;;;23.89;49.11
59825;BME280;45703;50.898;6.054;2023-06-26T11:16:44;100340.44;;;24.03;49.69
59825;BME280;45703;50.898;6.054;2023-06-26T11:19:10;100340.88;;;24.18;48.72
59825;BME280;45703;50.898;6.054;2023-06-26T11:21:37;100341.59;;;24.10;48.17
59825;BME280;45703;50.898;6.054;2023-06-26T11:24:05;100356.94;;;24.20;48.70
59825;BME280;45703;50.898;6.054;2023-06-26T11:26:40;100352.59;;;24.19;48.94
59825;BME280;45703;50.898;6.054;2023-06-26T11:29:07;100343.72;;;24.13;48.90
59825;BME280;45703;50.898;6.054;2023-06-26T11:31:38;100353.25;;;24.02;48.08
59825;BME280;45703;50.898;6.054;2023-06-26T11:34:06;100348.41;;;23.99;47.52
59825;BME280;45703;50.898;6.054;2023-06-26T11:36:39;100350.13;;;23.95;48.27
59825;BME280;45703;50.898;6.054;2023-06-26T11:39:07;100356.41;;;23.82;48.68
59825;BME280;45703;50.898;6.054;2023-06-26T11:41:34;100356.91;;;23.84;49.34
59825;BME280;45703;50.898;6.054;2023-06-26T11:44:01;100340.75;;;23.88;47.61
59825;BME280;45703;50.898;6.054;2023-06-26T11:46:27;100354.97;;;23.98;47.85
59825;BME280;45703;50.898;6.054;2023-06-26T11:48:53;100359.78;;;24.15;47.75
59825;BME280;45703;50.898;6.054;2023-06-26T11:51:19;100367.16;;;24.14;46.56
59825;BME280;45703;50.898;6.054;2023-06-26T11:53:45;100361.53;;;24.11;45.94
59825;BME280;45703;50.898;6.054;2023-06-26T11:56:12;100362.69;;;24.18;47.36
59825;BME280;45703;50.898;6.054;2023-06-26T12:01:24;100370.31;;;24.43;45.28
59825;BME280;45703;50.898;6.054;2023-06-26T12:03:50;100377.56;;;24.61;45.88
59825;BME280;45703;50.898;6.054;2023-06-26T12:06:16;100377.28;;;24.71;45.60
59825;BME280;45703;50.898;6.054;2023-06-26T12:08:43;100376.88;;;24.78;44.07
59825;BME280;45703;50.898;6.054;2023-06-26T12:11:08;100380.44;;;24.78;44.62
59825;BME280;45703;50.898;6.054;2023-06-26T12:13:34;100378.13;;;24.72;45.06
59825;BME280;45703;50.898;6.054;2023-06-26T12:16:00;100389.97;;;24.67;45.48
59825;BME280;45703;50.898;6.054;2023-06-26T12:18:25;100404.84;;;24.61;44.83
59825;BME280;45703;50.898;6.054;2023-06-26T12:20:52;100405.97;;;24.60;44.27
59825;BME280;45703;50.898;6.054;2023-06-26T12:23:17;100397.63;;;24.43;42.62
59825;BME280;45703;50.898;6.054;2023-06-26T12:25:43;100421.06;;;24.44;43.64
59825;BME280;45703;50.898;6.054;2023-06-26T12:28:18;100415.84;;;24.34;43.26
59825;BME280;45703;50.898;6.054;2023-06-26T12:31:09;100384.31;;;24.28;42.16
59825;BME280;45703;50.898;6.054;2023-06-26T12:33:33;100400.56;;;24.33;43.69
59825;BME280;45703;50.898;6.054;2023-06-26T12:35:58;100396.00;;;24.42;43.08
59825;BME280;45703;50.898;6.054;2023-06-26T12:38:32;100392.75;;;24.54;42.69
59825;BME280;45703;50.898;6.054;2023-06-26T12:40:58;100404.22;;;24.64;42.90
59825;BME280;45703;50.898;6.054;2023-06-26T12:43:25;100413.03;;;24.61;42.63
59825;BME280;45703;50.898;6.054;2023-06-26T12:45:54;100399.63;;;24.51;42.09
59825;BME280;45703;50.898;6.054;2023-06-26T12:48:20;100412.88;;;24.58;43.31
59825;BME280;45703;50.898;6.054;2023-06-26T12:50:45;100402.25;;;24.56;42.09
59825;BME280;45703;50.898;6.054;2023-06-26T12:53:11;100384.44;;;24.59;42.92
59825;BME280;45703;50.898;6.054;2023-06-26T12:55:36;100386.25;;;24.63;43.34
59825;BME280;45703;50.898;6.054;2023-06-26T12:58:02;100418.03;;;24.81;42.88
59825;BME280;45703;50.898;6.054;2023-06-26T13:00:27;100418.16;;;24.76;42.13
59825;BME280;45703;50.898;6.054;2023-06-26T13:02:53;100423.22;;;24.69;42.75
59825;BME280;45703;50.898;6.054;2023-06-26T13:05:19;100417.88;;;24.64;41.76
59825;BME280;45703;50.898;6.054;2023-06-26T13:07:44;100405.47;;;24.58;42.46